Time;durP1;ratioP1;P1;durP2;ratioP2;P2;SDS_P1;SDS_P2;PMS_P1;PMS_P2;Temp;Humidity;BMP_temperature;BMP_pressure;BME280_temperature;BME280_humidity;BME280_pressure;Samples;Min_cycle;Max_cycle;Signal;HPM_P1;HPM_P2
2023/08/22 00:01:07;;;;;;;1.88;0.70;;;26.40;50.50;;;;;;5063697;28;20044;-66
2023/08/22 00:03:33;;;;;;;1.42;0.77;;;26.40;50.50;;;;;;5064234;28;20032;-64
2023/08/22 00:05:59;;;;;;;1.60;0.68;;;26.40;50.50;;;;;;5059424;28;20047;-65
2023/08/22 00:08:25;;;;;;;3.13;1.60;;;26.40;50.60;;;;;;5070744;28;20166;-66
2023/08/22 00:10:51;;;;;;;3.60;1.50;;;26.40;50.60;;;;;;5065088;28;20107;-65
2023/08/22 00:13:17;;;;;;;3.05;1.73;;;26.40;50.60;;;;;;5044406;28;20437;-68
2023/08/22 00:15:43;;;;;;;2.97;1.10;;;26.40;50.70;;;;;;5066599;28;20048;-66
2023/08/22 00:18:09;;;;;;;1.58;1.10;;;26.40;50.70;;;;;;5066953;28;20104;-65
2023/08/22 00:20:36;;;;;;;2.13;1.10;;;26.30;50.60;;;;;;5059346;28;20025;-68
2023/08/22 00:23:03;;;;;;;2.30;1.10;;;26.40;50.80;;;;;;5062860;28;20025;-66
2023/08/22 00:25:29;;;;;;;1.65;0.93;;;26.40;50.80;;;;;;5070134;28;20036;-64
2023/08/22 00:27:55;;;;;;;1.80;0.98;;;26.30;50.80;;;;;;5064742;28;20029;-65
2023/08/22 00:30:21;;;;;;;1.75;0.70;;;26.30;50.90;;;;;;5048865;28;20127;-64
2023/08/22 00:32:48;;;;;;;1.73;0.90;;;26.30;50.90;;;;;;5045299;28;20104;-66
2023/08/22 00:35:13;;;;;;;1.52;0.80;;;26.30;50.90;;;;;;5063638;28;20332;-66
2023/08/22 00:37:39;;;;;;;2.40;0.95;;;26.30;51.10;;;;;;5044835;28;20045;-69
2023/08/22 00:40:07;;;;;;;2.33;0.93;;;26.30;51.00;;;;;;5066303;28;20029;-66
2023/08/22 00:42:33;;;;;;;1.65;0.85;;;26.30;51.10;;;;;;5039117;28;20391;-66
2023/08/22 00:44:58;;;;;;;0.90;0.60;;;26.30;51.10;;;;;;5048108;28;20040;-68
2023/08/22 00:47:25;;;;;;;1.15;0.57;;;26.30;51.10;;;;;;5047533;28;20082;-65
2023/08/22 00:49:52;;;;;;;1.75;0.80;;;26.30;51.20;;;;;;5049869;28;20108;-64
2023/08/22 00:52:19;;;;;;;1.42;0.65;;;26.30;51.20;;;;;;5034819;28;20029;-64
2023/08/22 00:54:46;;;;;;;1.73;0.95;;;26.30;51.20;;;;;;5042013;28;20163;-65
2023/08/22 00:57:13;;;;;;;1.98;0.60;;;26.20;51.20;;;;;;5057230;28;20118;-65
2023/08/22 00:59:40;;;;;;;2.33;0.77;;;26.20;51.30;;;;;;5071369;28;20120;-66
2023/08/22 01:02:08;;;;;;;1.88;0.70;;;26.20;51.30;;;;;;5067560;28;20097;-63
2023/08/22 01:04:34;;;;;;;1.55;0.60;;;26.20;51.30;;;;;;5064593;28;20063;-64
2023/08/22 01:07:09;;;;;;;2.15;0.77;;;26.20;51.40;;;;;;5048589;28;20055;-65
2023/08/22 01:09:44;;;;;;;2.05;0.90;;;26.20;51.40;;;;;;5077812;28;20115;-66
2023/08/22 01:12:45;;;;;;;1.15;0.60;;;26.20;51.40;;;;;;5034043;28;20082;-65
2023/08/22 01:15:20;;;;;;;1.40;0.60;;;26.20;51.40;;;;;;5065628;28;20049;-66
2023/08/22 01:17:48;;;;;;;0.73;0.50;;;26.20;51.50;;;;;;5052079;28;20478;-63
2023/08/22 01:20:14;;;;;;;1.40;0.55;;;26.20;51.50;;;;;;5067580;28;20090;-64
2023/08/22 01:22:41;;;;;;;0.90;0.70;;;26.20;51.50;;;;;;5051602;28;20029;-63
2023/08/22 01:25:08;;;;;;;1.50;0.60;;;26.20;51.60;;;;;;5066265;28;20046;-65
2023/08/22 01:27:58;;;;;;;0.88;0.60;;;26.20;51.60;;;;;;5072538;28;20476;-64
2023/08/22 01:31:07;;;;;;;1.80;0.80;;;26.20;51.60;;;;;;5066661;28;20047;-66
2023/08/22 01:33:33;;;;;;;1.23;0.70;;;26.20;51.60;;;;;;5033064;28;20040;-64
2023/08/22 01:35:59;;;;;;;0.95;0.45;;;26.10;51.60;;;;;;5063660;28;20029;-67
2023/08/22 01:38:28;;;;;;;0.77;0.55;;;26.20;51.70;;;;;;5068056;28;20028;-66
2023/08/22 01:40:55;;;;;;;1.15;0.70;;;26.10;51.70;;;;;;5064690;28;20096;-67
2023/08/22 01:43:21;;;;;;;1.90;0.80;;;26.10;51.70;;;;;;5048180;28;20020;-66
2023/08/22 01:45:48;;;;;;;1.00;0.60;;;26.20;51.80;;;;;;5065514;28;20521;-64
2023/08/22 01:48:14;;;;;;;1.77;0.50;;;26.20;51.80;;;;;;5065087;28;20490;-64
2023/08/22 01:50:40;;;;;;;1.55;0.60;;;26.10;51.70;;;;;;5048528;28;20025;-65
2023/08/22 01:53:06;;;;;;;2.42;0.85;;;26.20;51.80;;;;;;5078245;28;20104;-64
2023/08/22 01:55:32;;;;;;;0.75;0.50;;;26.10;51.80;;;;;;5069876;28;20020;-65
2023/08/22 01:57:58;;;;;;;1.33;0.60;;;26.10;51.80;;;;;;5051467;28;20041;-66
2023/08/22 02:00:24;;;;;;;1.67;0.70;;;26.20;51.90;;;;;;5056153;28;20029;-65
2023/08/22 02:02:50;;;;;;;1.23;0.60;;;26.10;51.80;;;;;;5075134;28;20107;-65
2023/08/22 02:05:16;;;;;;;1.02;0.55;;;26.10;51.90;;;;;;5048498;28;20119;-64
2023/08/22 02:07:42;;;;;;;1.70;0.63;;;26.10;51.90;;;;;;5075288;28;20108;-64
2023/08/22 02:10:08;;;;;;;1.60;0.80;;;26.10;51.90;;;;;;5060421;28;20144;-68
2023/08/22 02:12:34;;;;;;;1.25;0.60;;;26.10;51.90;;;;;;5072157;28;20383;-64
2023/08/22 02:15:00;;;;;;;1.08;0.50;;;26.10;51.90;;;;;;5041580;28;20132;-65
2023/08/22 02:17:26;;;;;;;2.63;1.00;;;26.10;52.10;;;;;;5066666;28;20082;-68
2023/08/22 02:19:52;;;;;;;1.67;0.77;;;26.10;51.90;;;;;;5073466;28;20021;-66
2023/08/22 02:22:18;;;;;;;1.75;1.10;;;26.10;52.00;;;;;;5048459;28;20047;-67
2023/08/22 02:24:43;;;;;;;1.95;0.70;;;26.10;52.00;;;;;;5050515;28;20037;-66
2023/08/22 02:27:09;;;;;;;1.95;0.82;;;26.10;52.50;;;;;;5046659;28;20400;-68
2023/08/22 02:29:36;;;;;;;1.40;0.73;;;26.10;52.00;;;;;;5046778;28;20020;-67
2023/08/22 02:32:02;;;;;;;1.30;0.60;;;26.10;52.00;;;;;;5066609;28;20029;-68
2023/08/22 02:34:28;;;;;;;1.85;0.80;;;26.10;52.00;;;;;;5064991;28;20029;-65
2023/08/22 02:36:55;;;;;;;1.25;0.50;;;26.10;52.00;;;;;;5070724;28;20032;-67
2023/08/22 02:39:21;;;;;;;1.77;0.65;;;26.00;52.00;;;;;;5048473;28;20107;-65
2023/08/22 02:41:47;;;;;;;0.82;0.63;;;26.00;52.00;;;;;;5072918;28;20325;-67
2023/08/22 02:44:13;;;;;;;1.40;0.70;;;26.10;52.10;;;;;;5042736;28;20321;-64
2023/08/22 02:46:39;;;;;;;0.82;0.50;;;26.00;52.00;;;;;;5048899;28;20039;-67
2023/08/22 02:49:04;;;;;;;1.20;0.60;;;26.00;52.00;;;;;;5069845;28;20044;-64
2023/08/22 02:51:31;;;;;;;1.08;0.50;;;26.00;52.00;;;;;;5045882;28;20032;-67
2023/08/22 02:53:57;;;;;;;1.40;0.70;;;26.00;52.00;;;;;;5063270;28;20045;-65
2023/08/22 02:56:24;;;;;;;1.10;0.65;;;26.00;52.00;;;;;;5046381;28;20546;-64
2023/08/22 02:58:50;;;;;;;1.27;0.60;;;26.00;52.10;;;;;;5062761;28;20063;-66
2023/08/22 03:01:16;;;;;;;0.73;0.65;;;26.00;52.10;;;;;;5058712;28;20389;-69
2023/08/22 03:03:43;;;;;;;1.13;0.45;;;26.00;52.10;;;;;;5046563;28;20037;-66
2023/08/22 03:06:09;;;;;;;1.30;0.70;;;26.00;52.10;;;;;;5073504;28;20043;-66
2023/08/22 03:08:36;;;;;;;1.63;0.80;;;26.00;52.20;;;;;;5048819;28;20028;-64
2023/08/22 03:11:03;;;;;;;2.08;0.68;;;26.00;52.20;;;;;;5043447;28;20024;-67
2023/08/22 03:13:30;;;;;;;1.48;0.68;;;26.00;52.20;;;;;;5046111;28;20031;-67
2023/08/22 03:15:57;;;;;;;1.33;0.70;;;26.00;52.20;;;;;;5065805;28;20039;-65
2023/08/22 03:18:25;;;;;;;1.83;0.77;;;26.00;52.20;;;;;;5049912;28;20040;-66
2023/08/22 03:20:54;;;;;;;0.88;0.60;;;26.00;52.20;;;;;;5061347;28;20091;-66
2023/08/22 03:23:20;;;;;;;1.70;0.73;;;26.00;52.20;;;;;;5047605;28;20091;-65
2023/08/22 03:26:02;;;;;;;1.40;0.80;;;26.00;52.20;;;;;;5047001;28;20331;-65
2023/08/22 03:28:29;;;;;;;1.67;0.60;;;26.00;52.20;;;;;;5049473;28;20460;-66
2023/08/22 03:30:57;;;;;;;1.60;0.80;;;25.90;52.20;;;;;;5052452;28;20028;-66
2023/08/22 03:33:24;;;;;;;2.22;0.80;;;26.00;52.30;;;;;;5051517;28;20035;-65
2023/08/22 03:35:54;;;;;;;1.88;0.70;;;25.90;52.20;;;;;;5026868;28;20391;-64
2023/08/22 03:38:21;;;;;;;1.60;0.85;;;25.90;52.30;;;;;;5075025;28;20513;-65
2023/08/22 03:40:48;;;;;;;2.35;0.73;;;25.90;52.30;;;;;;5043756;28;20020;-65
2023/08/22 03:43:16;;;;;;;2.08;0.77;;;25.90;52.30;;;;;;5045492;28;20051;-64
2023/08/22 03:45:43;;;;;;;1.33;0.70;;;25.90;52.40;;;;;;5047244;28;20081;-65
2023/08/22 03:48:09;;;;;;;1.13;0.60;;;25.90;52.40;;;;;;5054018;28;20117;-67
2023/08/22 03:50:37;;;;;;;1.95;0.70;;;25.90;52.40;;;;;;5040853;28;20420;-68
2023/08/22 03:53:03;;;;;;;0.85;0.60;;;25.90;52.40;;;;;;5068554;28;20055;-66
2023/08/22 03:55:29;;;;;;;1.95;0.85;;;25.90;52.50;;;;;;5048081;28;20025;-68
2023/08/22 03:57:58;;;;;;;2.17;0.80;;;25.90;52.50;;;;;;5065777;28;20063;-66
2023/08/22 04:00:25;;;;;;;0.88;0.60;;;25.90;52.50;;;;;;5048340;28;20025;-69
2023/08/22 04:02:55;;;;;;;1.23;0.63;;;25.90;52.50;;;;;;5070093;28;20092;-64
2023/08/22 04:05:22;;;;;;;2.22;0.60;;;25.90;52.60;;;;;;5070252;28;20060;-65
2023/08/22 04:07:51;;;;;;;2.75;1.00;;;25.80;52.50;;;;;;5066100;28;20059;-67
2023/08/22 04:10:18;;;;;;;1.25;0.70;;;25.80;52.60;;;;;;5063592;28;20033;-66
2023/08/22 04:12:44;;;;;;;0.98;0.70;;;25.80;52.60;;;;;;5076877;28;20111;-67
2023/08/22 04:15:11;;;;;;;1.20;0.73;;;25.90;52.70;;;;;;5049929;28;20174;-65
2023/08/22 04:17:38;;;;;;;1.27;0.70;;;25.80;52.70;;;;;;5075400;28;20032;-65
2023/08/22 04:20:06;;;;;;;1.52;0.80;;;25.80;52.70;;;;;;5064367;28;20028;-64
2023/08/22 04:22:34;;;;;;;1.70;0.80;;;25.80;52.70;;;;;;5058588;28;20041;-66
2023/08/22 04:25:00;;;;;;;1.58;0.90;;;25.80;52.70;;;;;;5066549;28;20039;-66
2023/08/22 04:27:26;;;;;;;2.15;0.82;;;25.80;52.70;;;;;;5065632;28;20140;-65
2023/08/22 04:29:52;;;;;;;1.00;0.65;;;25.80;52.80;;;;;;5065925;28;21925;-66
2023/08/22 04:32:18;;;;;;;1.88;1.05;;;25.80;52.90;;;;;;5044952;28;20098;-68
2023/08/22 04:34:45;;;;;;;2.42;0.93;;;25.80;52.90;;;;;;5062424;28;20304;-65
2023/08/22 04:37:11;;;;;;;1.13;0.60;;;25.80;53.50;;;;;;5065828;28;20024;-67
2023/08/22 04:39:37;;;;;;;1.88;0.85;;;25.80;52.90;;;;;;5059290;28;20471;-69
2023/08/22 04:42:18;;;;;;;1.92;0.80;;;25.80;53.00;;;;;;5062260;28;20036;-65
2023/08/22 04:44:51;;;;;;;1.27;0.70;;;25.80;53.10;;;;;;5072576;28;20111;-64
2023/08/22 04:47:17;;;;;;;1.65;0.95;;;25.80;53.00;;;;;;5062230;28;20048;-68
2023/08/22 04:49:43;;;;;;;1.35;0.85;;;25.80;53.00;;;;;;5064650;28;20410;-66
2023/08/22 04:52:09;;;;;;;3.30;1.20;;;25.80;53.00;;;;;;5082097;28;20024;-67
2023/08/22 04:54:35;;;;;;;1.35;0.73;;;25.80;53.00;;;;;;5069202;28;20096;-67
2023/08/22 04:57:02;;;;;;;1.85;0.73;;;25.80;53.00;;;;;;5068730;28;20027;-68
2023/08/22 04:59:28;;;;;;;1.17;0.77;;;25.80;53.00;;;;;;5066302;28;20460;-68
2023/08/22 05:01:55;;;;;;;1.13;0.73;;;25.80;53.00;;;;;;5058883;28;20085;-64
2023/08/22 05:04:21;;;;;;;1.10;0.63;;;25.80;53.00;;;;;;5051347;28;20107;-65
2023/08/22 05:06:48;;;;;;;1.42;0.90;;;25.80;53.00;;;;;;5065865;28;20043;-67
2023/08/22 05:09:15;;;;;;;1.70;0.82;;;25.80;53.10;;;;;;5058237;28;20107;-68
2023/08/22 05:11:41;;;;;;;1.23;0.70;;;25.80;53.10;;;;;;5081646;28;20047;-64
2023/08/22 05:14:08;;;;;;;1.50;0.90;;;25.80;53.10;;;;;;5057003;28;20482;-65
2023/08/22 05:16:34;;;;;;;1.63;0.90;;;25.80;53.10;;;;;;5064604;28;20036;-65
2023/08/22 05:19:00;;;;;;;1.40;0.80;;;25.80;53.20;;;;;;5059706;28;20024;-67
2023/08/22 05:21:26;;;;;;;1.20;0.80;;;25.80;53.20;;;;;;5067125;28;20084;-67
2023/08/22 05:23:52;;;;;;;1.45;0.90;;;25.80;53.20;;;;;;5049468;28;20217;-65
2023/08/22 05:26:18;;;;;;;1.77;1.17;;;25.80;53.20;;;;;;5069165;28;20028;-66
2023/08/22 05:28:45;;;;;;;1.67;1.00;;;25.80;53.30;;;;;;5066476;28;20047;-65
2023/08/22 05:31:21;;;;;;;1.27;0.82;;;25.80;53.30;;;;;;5089252;28;20024;-63
2023/08/22 05:33:48;;;;;;;2.08;0.80;;;25.80;53.30;;;;;;5057179;28;20339;-67
2023/08/22 05:36:14;;;;;;;2.08;1.10;;;25.80;53.30;;;;;;5065520;28;20031;-67
2023/08/22 05:38:41;;;;;;;2.80;1.10;;;25.80;53.40;;;;;;5064515;28;20025;-63
2023/08/22 05:41:07;;;;;;;1.65;1.05;;;25.80;53.40;;;;;;5047696;28;20032;-67
2023/08/22 05:43:32;;;;;;;2.83;1.30;;;25.80;53.40;;;;;;5084867;28;20111;-64
2023/08/22 05:45:58;;;;;;;2.70;1.15;;;25.80;53.40;;;;;;5086980;28;20024;-67
2023/08/22 05:48:24;;;;;;;3.63;1.20;;;25.80;53.50;;;;;;5061510;28;20067;-65
2023/08/22 05:50:51;;;;;;;1.65;1.40;;;25.80;53.50;;;;;;5068168;28;20051;-63
2023/08/22 05:53:17;;;;;;;2.58;1.20;;;25.80;53.50;;;;;;5068624;28;20049;-66
2023/08/22 05:55:43;;;;;;;5.50;1.40;;;25.80;53.50;;;;;;5068807;28;20051;-63
2023/08/22 05:58:09;;;;;;;3.35;1.38;;;25.80;53.50;;;;;;5082226;28;20029;-64
2023/08/22 06:00:35;;;;;;;2.08;1.40;;;25.80;53.60;;;;;;5079982;28;20130;-66
2023/08/22 06:03:02;;;;;;;2.65;1.48;;;25.80;53.60;;;;;;5081410;28;20046;-66
2023/08/22 06:05:28;;;;;;;2.17;1.15;;;25.80;53.60;;;;;;5063126;28;20039;-66
2023/08/22 06:07:55;;;;;;;2.78;1.35;;;25.80;53.60;;;;;;5037819;28;20048;-68
2023/08/22 06:10:23;;;;;;;4.03;1.48;;;25.80;53.60;;;;;;5082283;28;20116;-68
2023/08/22 06:12:49;;;;;;;2.45;1.30;;;25.80;53.60;;;;;;5066338;28;20130;-70
2023/08/22 06:15:16;;;;;;;2.00;1.25;;;25.90;53.60;;;;;;5067868;28;20036;-66
2023/08/22 06:17:41;;;;;;;2.95;1.42;;;25.80;53.50;;;;;;5038473;28;20047;-66
2023/08/22 06:20:08;;;;;;;3.78;1.23;;;25.90;53.50;;;;;;5060572;28;20078;-65
2023/08/22 06:22:34;;;;;;;4.15;1.55;;;25.90;53.50;;;;;;5082822;28;20028;-67
2023/08/22 06:25:04;;;;;;;2.95;1.23;;;25.80;53.40;;;;;;5062101;28;20051;-64
2023/08/22 06:27:31;;;;;;;3.75;1.30;;;25.90;53.40;;;;;;5040096;28;20028;-65
2023/08/22 06:30:00;;;;;;;3.17;1.35;;;25.90;53.40;;;;;;5051853;28;20073;-65
2023/08/22 06:32:27;;;;;;;2.50;1.50;;;25.90;53.40;;;;;;5034911;28;20035;-66
2023/08/22 06:34:59;;;;;;;3.67;1.48;;;25.90;53.30;;;;;;5049663;28;20039;-65
2023/08/22 06:37:25;;;;;;;4.10;1.63;;;25.90;53.20;;;;;;5073399;28;20348;-65
2023/08/22 06:39:52;;;;;;;2.58;1.38;;;25.90;53.20;;;;;;5044397;28;20100;-66
2023/08/22 06:42:18;;;;;;;3.45;1.38;;;25.90;53.10;;;;;;5068154;28;20100;-65
2023/08/22 06:44:49;;;;;;;2.15;1.10;;;26.00;53.10;;;;;;5052311;28;20045;-66
2023/08/22 06:47:15;;;;;;;4.38;1.70;;;26.00;53.10;;;;;;5062631;28;20064;-65
2023/08/22 06:49:41;;;;;;;5.30;1.52;;;26.00;53.00;;;;;;5071598;28;20101;-65
2023/08/22 06:52:07;;;;;;;1.92;1.30;;;25.90;52.90;;;;;;5069591;28;20048;-66
2023/08/22 06:54:33;;;;;;;3.60;1.40;;;26.00;52.90;;;;;;5045312;28;20098;-67
2023/08/22 06:56:59;;;;;;;2.10;1.30;;;26.00;52.90;;;;;;5074716;28;20155;-65
2023/08/22 06:59:25;;;;;;;2.40;1.30;;;26.00;52.70;;;;;;5058715;28;20146;-65
2023/08/22 07:01:51;;;;;;;2.45;1.30;;;26.00;52.70;;;;;;5064847;28;20055;-66
2023/08/22 07:04:17;;;;;;;4.28;1.65;;;26.00;52.60;;;;;;5056201;28;20044;-67
2023/08/22 07:06:43;;;;;;;3.70;1.38;;;26.00;52.50;;;;;;5051282;28;20768;-63
2023/08/22 07:09:09;;;;;;;3.47;1.90;;;26.00;52.50;;;;;;5053999;28;20050;-64
2023/08/22 07:11:35;;;;;;;3.72;1.40;;;26.00;52.40;;;;;;5071478;28;20392;-64
2023/08/22 07:14:03;;;;;;;3.92;1.65;;;26.00;52.40;;;;;;5079852;28;20430;-66
2023/08/22 07:16:29;;;;;;;3.17;1.23;;;26.00;52.20;;;;;;5081059;28;20100;-67
2023/08/22 07:18:54;;;;;;;3.28;1.50;;;26.00;52.20;;;;;;5055293;28;20089;-65
2023/08/22 07:21:20;;;;;;;3.97;1.60;;;26.00;52.00;;;;;;5081522;28;20423;-64
2023/08/22 07:23:46;;;;;;;2.67;1.33;;;26.00;52.00;;;;;;5066937;28;20059;-67
2023/08/22 07:26:12;;;;;;;2.88;1.60;;;26.00;51.80;;;;;;5053935;28;20104;-66
2023/08/22 07:28:38;;;;;;;2.95;1.38;;;26.00;51.70;;;;;;5074986;28;20043;-65
2023/08/22 07:31:05;;;;;;;2.83;1.10;;;26.00;51.60;;;;;;5048129;28;21824;-64
2023/08/22 07:33:31;;;;;;;3.10;1.23;;;26.00;51.50;;;;;;5078072;28;20088;-63
2023/08/22 07:35:57;;;;;;;1.95;1.15;;;26.10;51.50;;;;;;5071062;28;20435;-66
2023/08/22 07:38:23;;;;;;;3.58;1.05;;;26.10;51.40;;;;;;5068042;28;20029;-65
2023/08/22 07:40:49;;;;;;;1.35;0.73;;;26.00;51.20;;;;;;5066517;28;20362;-66
2023/08/22 07:43:15;;;;;;;2.97;1.13;;;26.10;51.10;;;;;;5070508;28;20032;-67
2023/08/22 07:45:40;;;;;;;1.48;0.70;;;26.10;51.00;;;;;;5070606;28;20098;-65
2023/08/22 07:48:07;;;;;;;1.20;0.90;;;26.10;51.00;;;;;;5051855;28;20052;-65
2023/08/22 07:50:34;;;;;;;1.48;0.90;;;26.10;51.00;;;;;;5060937;28;20077;-65
2023/08/22 07:53:00;;;;;;;1.63;0.70;;;26.10;51.00;;;;;;5059647;28;20033;-65
2023/08/22 07:55:26;;;;;;;2.55;1.20;;;26.10;51.00;;;;;;5065087;28;20025;-65
2023/08/22 07:57:52;;;;;;;2.33;0.90;;;26.10;50.90;;;;;;5037109;28;20416;-63
2023/08/22 08:00:18;;;;;;;2.63;0.70;;;26.10;50.70;;;;;;5050810;28;20100;-64
2023/08/22 08:02:45;;;;;;;1.55;0.82;;;26.10;50.50;;;;;;5053916;28;20032;-63
2023/08/22 08:05:15;;;;;;;1.95;0.70;;;26.10;50.30;;;;;;5072135;28;20055;-64
2023/08/22 08:07:41;;;;;;;1.83;0.80;;;26.20;50.20;;;;;;5074395;28;20372;-65
2023/08/22 08:10:08;;;;;;;1.63;0.75;;;26.20;50.10;;;;;;5074119;28;20122;-64
2023/08/22 08:12:34;;;;;;;1.98;0.63;;;26.20;49.90;;;;;;5072546;28;20036;-66
2023/08/22 08:15:01;;;;;;;1.25;0.55;;;26.20;49.80;;;;;;5072648;28;20134;-67
2023/08/22 08:17:27;;;;;;;0.93;0.52;;;26.20;49.70;;;;;;5079608;28;20083;-64
2023/08/22 08:19:53;;;;;;;1.50;0.70;;;26.20;49.50;;;;;;5074202;28;20032;-63
2023/08/22 08:22:19;;;;;;;1.60;0.70;;;26.20;49.40;;;;;;5091919;28;20036;-65
2023/08/22 08:24:45;;;;;;;1.20;0.60;;;26.20;49.30;;;;;;5089235;28;20028;-65
2023/08/22 08:27:10;;;;;;;1.85;0.70;;;26.20;49.20;;;;;;5072808;28;20315;-63
2023/08/22 08:29:37;;;;;;;1.90;0.70;;;26.20;49.20;;;;;;5075325;28;20032;-64
2023/08/22 08:32:03;;;;;;;1.40;0.60;;;26.30;49.30;;;;;;5056473;28;20027;-64
2023/08/22 08:34:29;;;;;;;0.98;0.50;;;26.30;49.10;;;;;;5075804;28;20354;-62
2023/08/22 08:36:56;;;;;;;1.40;0.60;;;26.30;49.10;;;;;;5057761;28;20111;-66
2023/08/22 08:39:22;;;;;;;0.70;0.40;;;26.30;49.00;;;;;;5072295;28;20086;-71
2023/08/22 08:41:59;;;;;;;0.88;0.50;;;26.30;49.50;;;;;;5058812;28;20020;-68
2023/08/22 08:44:27;;;;;;;1.50;0.45;;;26.30;49.00;;;;;;5085849;28;20032;-71
2023/08/22 08:46:55;;;;;;;1.05;0.50;;;26.30;49.00;;;;;;5075612;28;20141;-68
2023/08/22 08:49:22;;;;;;;1.45;0.60;;;26.40;49.00;;;;;;5065001;28;20032;-68
2023/08/22 08:51:49;;;;;;;2.35;0.70;;;26.40;48.80;;;;;;5069185;28;20143;-66
2023/08/22 08:54:15;;;;;;;1.23;0.45;;;26.50;48.70;;;;;;5083205;28;20036;-68
2023/08/22 08:56:41;;;;;;;3.60;0.63;;;26.50;48.50;;;;;;5078314;28;20110;-64
2023/08/22 08:59:07;;;;;;;0.82;0.60;;;26.60;48.30;;;;;;5037613;28;20064;-64
2023/08/22 09:01:35;;;;;;;2.05;0.90;;;26.70;48.20;;;;;;5081430;28;20024;-62
2023/08/22 09:04:02;;;;;;;2.15;0.50;;;26.80;48.10;;;;;;5074432;28;20032;-63
2023/08/22 09:06:28;;;;;;;1.35;0.60;;;26.90;48.00;;;;;;5080620;28;20036;-62
2023/08/22 09:09:08;;;;;;;1.17;0.50;;;27.00;47.90;;;;;;5077206;28;20351;-64
2023/08/22 09:11:35;;;;;;;1.38;0.50;;;27.10;47.80;;;;;;5075834;28;20122;-64
2023/08/22 09:14:01;;;;;;;1.35;0.50;;;27.10;47.70;;;;;;5074628;28;20052;-64
2023/08/22 09:16:28;;;;;;;4.20;0.80;;;27.10;47.60;;;;;;5056003;28;20410;-62
2023/08/22 09:19:00;;;;;;;2.13;0.65;;;27.10;47.60;;;;;;5068068;28;20032;-65
2023/08/22 09:21:26;;;;;;;1.27;0.60;;;27.10;47.50;;;;;;5094672;28;20343;-64
2023/08/22 09:23:52;;;;;;;0.68;0.55;;;27.10;47.50;;;;;;5093481;28;20032;-62
2023/08/22 09:26:22;;;;;;;1.08;0.50;;;27.10;47.50;;;;;;5090272;28;20040;-63
2023/08/22 09:28:48;;;;;;;1.73;0.50;;;27.10;47.50;;;;;;5083919;28;20549;-63
2023/08/22 09:31:24;;;;;;;0.93;0.40;;;27.10;47.50;;;;;;5094006;28;20040;-65
2023/08/22 09:33:50;;;;;;;1.30;0.55;;;27.10;47.50;;;;;;5094895;28;20028;-65
2023/08/22 09:36:20;;;;;;;1.33;0.40;;;27.00;47.40;;;;;;5094533;28;20071;-64
2023/08/22 09:38:57;;;;;;;1.48;0.60;;;27.00;47.50;;;;;;5035897;28;20029;-62
2023/08/22 09:41:25;;;;;;;0.47;0.38;;;26.90;47.40;;;;;;5063387;28;20105;-65
2023/08/22 09:44:02;;;;;;;1.23;0.57;;;26.90;47.50;;;;;;5062503;28;20085;-63
2023/08/22 09:46:31;;;;;;;0.60;0.40;;;27.00;47.70;;;;;;5073525;28;20113;-65
2023/08/22 09:49:00;;;;;;;1.17;0.45;;;26.90;47.70;;;;;;5046230;28;20348;-63
2023/08/22 09:51:27;;;;;;;2.38;0.60;;;26.90;47.90;;;;;;5067699;28;20039;-65
2023/08/22 09:53:59;;;;;;;1.73;0.65;;;26.90;47.90;;;;;;5081492;28;20123;-62
2023/08/22 09:56:26;;;;;;;1.65;0.57;;;26.90;47.90;;;;;;5078114;28;20089;-62
2023/08/22 09:58:52;;;;;;;1.50;0.60;;;26.90;47.90;;;;;;5083112;28;20447;-63
2023/08/22 10:01:19;;;;;;;1.38;0.43;;;26.90;47.90;;;;;;5084901;28;20036;-64
2023/08/22 10:03:53;;;;;;;1.33;0.52;;;26.90;47.80;;;;;;5080641;28;20039;-64
2023/08/22 10:06:24;;;;;;;1.45;0.47;;;26.90;47.70;;;;;;5083260;28;20039;-64
2023/08/22 10:08:50;;;;;;;2.33;0.60;;;26.90;47.70;;;;;;5073644;28;20408;-67
2023/08/22 10:11:18;;;;;;;3.67;0.55;;;26.90;47.70;;;;;;5087506;28;20035;-64
2023/08/22 10:13:45;;;;;;;2.05;0.95;;;26.90;47.70;;;;;;5080460;28;20106;-65
2023/08/22 10:16:11;;;;;;;1.35;0.50;;;26.90;47.90;;;;;;5072884;28;20032;-65
2023/08/22 10:18:38;;;;;;;1.63;0.70;;;26.90;47.90;;;;;;5079206;28;20068;-64
2023/08/22 10:21:04;;;;;;;1.25;0.50;;;26.90;47.90;;;;;;5073445;28;20094;-63
2023/08/22 10:23:52;;;;;;;2.15;0.40;;;26.90;47.90;;;;;;5073299;28;20030;-65
2023/08/22 10:26:22;;;;;;;1.13;0.50;;;26.90;48.00;;;;;;5080982;28;20123;-66
2023/08/22 10:29:14;;;;;;;1.45;0.57;;;26.80;47.90;;;;;;5062281;28;20043;-65
2023/08/22 10:32:01;;;;;;;2.38;0.90;;;26.80;47.90;;;;;;5066936;28;20443;-64
2023/08/22 10:34:42;;;;;;;2.83;0.85;;;26.80;47.80;;;;;;5082031;28;20044;-68
2023/08/22 10:37:20;;;;;;;2.20;0.60;;;26.80;47.80;;;;;;5076075;28;20308;-68
2023/08/22 10:39:48;;;;;;;2.35;0.57;;;26.80;47.80;;;;;;5053354;28;20099;-67
2023/08/22 10:42:18;;;;;;;0.70;0.50;;;26.90;47.80;;;;;;5053112;28;20111;-65
2023/08/22 10:44:55;;;;;;;2.35;0.70;;;26.90;47.90;;;;;;5057007;28;20114;-69
2023/08/22 10:47:24;;;;;;;1.90;0.82;;;26.90;47.80;;;;;;5055334;28;20479;-67
2023/08/22 10:49:52;;;;;;;0.95;0.50;;;26.90;47.80;;;;;;5069667;28;20079;-68
2023/08/22 10:52:38;;;;;;;1.55;0.55;;;26.90;47.80;;;;;;5080630;28;20047;-66
2023/08/22 10:55:09;;;;;;;1.08;0.40;;;27.00;47.80;;;;;;5079080;28;20028;-67
2023/08/22 10:57:41;;;;;;;0.68;0.40;;;27.00;47.60;;;;;;5078848;28;20135;-67
2023/08/22 11:00:23;;;;;;;1.80;0.70;;;27.10;47.40;;;;;;5070466;28;20108;-67
2023/08/22 11:02:57;;;;;;;4.07;0.90;;;27.20;46.90;;;;;;5038081;28;20024;-63
2023/08/22 11:05:26;;;;;;;1.88;0.75;;;27.20;46.60;;;;;;5063937;28;20093;-66
2023/08/22 11:07:56;;;;;;;3.15;0.80;;;27.30;46.60;;;;;;5068575;28;20037;-66
2023/08/22 11:10:25;;;;;;;2.38;0.70;;;27.30;46.50;;;;;;5075757;28;20028;-66
2023/08/22 11:12:56;;;;;;;2.17;0.70;;;27.30;46.50;;;;;;5068173;28;20040;-66
2023/08/22 11:15:23;;;;;;;1.17;0.60;;;27.40;46.40;;;;;;5078255;28;20024;-67
2023/08/22 11:17:50;;;;;;;3.15;0.68;;;27.40;46.20;;;;;;5056737;28;20070;-66
2023/08/22 11:20:18;;;;;;;1.58;0.90;;;27.40;46.20;;;;;;5062656;28;20020;-66
2023/08/22 11:22:44;;;;;;;4.80;0.80;;;27.40;46.10;;;;;;5060760;28;20044;-68
2023/08/22 11:25:12;;;;;;;2.08;0.60;;;27.50;46.00;;;;;;5071331;28;20036;-67
2023/08/22 11:27:39;;;;;;;2.58;0.60;;;27.50;45.70;;;;;;5072222;28;20106;-66
2023/08/22 11:30:06;;;;;;;2.95;1.02;;;27.50;45.40;;;;;;5072074;28;20044;-66
2023/08/22 11:32:34;;;;;;;1.38;0.77;;;27.50;45.30;;;;;;5073064;28;20047;-68
2023/08/22 11:35:03;;;;;;;1.33;0.60;;;27.50;45.20;;;;;;5060236;28;20035;-66
2023/08/22 11:37:34;;;;;;;3.35;0.70;;;27.50;45.10;;;;;;5075644;28;20134;-70
2023/08/22 11:40:00;;;;;;;0.80;0.60;;;27.60;44.90;;;;;;5076745;28;20089;-68
2023/08/22 11:42:30;;;;;;;1.75;0.60;;;27.60;44.70;;;;;;5075500;28;20029;-68
2023/08/22 11:45:13;;;;;;;1.67;0.55;;;27.60;44.50;;;;;;5060039;28;20039;-67
2023/08/22 11:47:47;;;;;;;1.48;0.63;;;27.60;44.40;;;;;;5074136;28;20402;-69
2023/08/22 11:50:14;;;;;;;;;;;27.70;44.30;;;;;;5078585;28;20042;-65
2023/08/22 11:52:44;;;;;;;2.58;0.80;;;27.70;44.30;;;;;;5077027;28;19965;-70
2023/08/22 11:55:11;;;;;;;4.22;1.38;;;27.70;44.70;;;;;;5055127;28;20390;-69
2023/08/22 11:57:41;;;;;;;3.20;0.70;;;27.70;45.30;;;;;;5057606;28;20218;-68
2023/08/22 12:00:10;;;;;;;2.08;0.50;;;27.80;45.20;;;;;;5077723;28;20028;-67
2023/08/22 12:02:59;;;;;;;2.28;0.60;;;27.70;45.10;;;;;;5071682;28;20052;-69
2023/08/22 12:05:32;;;;;;;2.28;0.70;;;27.70;45.10;;;;;;5070646;28;20036;-66
2023/08/22 12:08:19;;;;;;;2.70;0.55;;;27.70;44.90;;;;;;5059349;28;20145;-68
2023/08/22 12:10:52;;;;;;;1.27;0.60;;;27.70;44.70;;;;;;5087478;28;20083;-67
2023/08/22 12:13:23;;;;;;;3.25;0.90;;;27.70;44.50;;;;;;5069073;28;20060;-67
2023/08/22 12:15:49;;;;;;;3.60;0.80;;;27.70;44.40;;;;;;5081236;28;20111;-68
2023/08/22 12:18:16;;;;;;;3.30;0.70;;;27.70;44.40;;;;;;5071127;28;20033;-68
2023/08/22 12:20:44;;;;;;;1.58;0.60;;;27.70;44.40;;;;;;5074550;28;20029;-68
2023/08/22 12:23:11;;;;;;;2.28;0.68;;;27.70;44.50;;;;;;5081678;28;20123;-69
2023/08/22 12:25:41;;;;;;;1.25;0.70;;;27.70;44.50;;;;;;5059924;28;20154;-67
2023/08/22 12:28:08;;;;;;;1.00;0.50;;;27.70;44.50;;;;;;5074637;28;20119;-67
2023/08/22 12:30:35;;;;;;;2.33;0.88;;;27.70;44.60;;;;;;5075042;28;20032;-66
2023/08/22 12:33:03;;;;;;;2.53;0.70;;;27.80;44.70;;;;;;5078362;28;20063;-68
2023/08/22 12:35:33;;;;;;;1.58;0.70;;;27.70;44.60;;;;;;5071414;28;20083;-65
2023/08/22 12:37:59;;;;;;;2.45;0.80;;;27.70;44.70;;;;;;5062797;28;20413;-69
2023/08/22 12:40:25;;;;;;;2.03;1.23;;;27.70;44.80;;;;;;5074512;28;20033;-68
2023/08/22 12:42:51;;;;;;;2.25;0.75;;;27.70;45.00;;;;;;5063390;28;20044;-69
2023/08/22 12:45:17;;;;;;;1.83;0.52;;;27.80;45.20;;;;;;5072087;28;20079;-65
2023/08/22 12:47:43;;;;;;;2.05;0.70;;;27.90;45.30;;;;;;5054472;28;20063;-68
2023/08/22 12:50:10;;;;;;;2.55;0.77;;;27.90;45.20;;;;;;5057395;28;20089;-64
2023/08/22 12:52:37;;;;;;;0.90;0.52;;;28.00;45.20;;;;;;5041655;28;20420;-62